createdAt,value
2023-10-06T00:05:50.331Z,6.25
2023-10-06T00:35:53.224Z,5.30
2023-10-06T01:05:57.120Z,10.15
2023-10-06T01:36:00.114Z,8.80
2023-10-06T02:06:04.269Z,7.83
2023-10-06T02:36:07.401Z,8.13
2023-10-06T03:06:10.429Z,13.85
2023-10-06T03:36:13.771Z,13.65
2023-10-06T04:06:17.323Z,12.97
2023-10-06T04:36:20.228Z,8.03
2023-10-06T05:06:24.300Z,7.63
2023-10-06T05:36:27.377Z,10.27
2023-10-06T06:06:30.395Z,7.85
2023-10-06T06:36:33.749Z,8.30
2023-10-06T07:06:37.751Z,13.63
2023-10-06T07:36:41.416Z,9.07
2023-10-06T08:06:44.812Z,9.13
2023-10-06T08:36:48.391Z,10.13
2023-10-06T09:06:51.595Z,9.90
2023-10-06T09:36:55.230Z,10.75
2023-10-06T10:06:58.831Z,12.37
2023-10-06T10:37:01.732Z,12.57
2023-10-06T11:07:06.517Z,15.27
2023-10-06T11:37:09.553Z,10.17
2023-10-06T12:07:12.675Z,9.70
2023-10-06T12:37:16.028Z,6.57
2023-10-06T13:07:19.328Z,6.37
2023-10-06T13:37:22.297Z,6.37
2023-10-06T14:07:25.821Z,4.83
2023-10-06T14:37:28.827Z,4.17
2023-10-06T15:07:32.682Z,4.10
2023-10-06T15:37:35.608Z,4.23
2023-10-06T16:07:40.749Z,5.20
2023-10-06T16:37:43.894Z,5.97
2023-10-06T17:07:48.532Z,4.10
2023-10-06T17:37:51.645Z,4.17
2023-10-06T18:07:55.587Z,5.20
2023-10-06T18:37:58.677Z,4.87
2023-10-06T19:08:02.956Z,5.10
2023-10-06T19:38:05.946Z,5.60
2023-10-06T20:08:09.612Z,4.27
2023-10-06T20:38:12.547Z,4.13
2023-10-06T21:08:16.544Z,2.73
2023-10-06T21:38:19.491Z,3.20
2023-10-06T22:08:23.546Z,2.70
2023-10-06T22:38:27.658Z,2.20
2023-10-06T23:08:30.904Z,2.43
2023-10-06T23:38:34.283Z,2.37
